createdAt,value
2023-03-03T00:00:46.691Z,33.60
2023-03-03T00:01:48.998Z,37.30
2023-03-03T00:02:51.254Z,35.50
2023-03-03T00:03:54.127Z,35.10
2023-03-03T00:04:56.727Z,35.30
2023-03-03T00:05:59.865Z,34.30
2023-03-03T00:07:02.669Z,35.73
2023-03-03T00:08:05.208Z,26.30
2023-03-03T00:09:07.621Z,29.90
2023-03-03T00:10:14.691Z,27.20
2023-03-03T00:11:18.075Z,27.10
2023-03-03T00:12:29.491Z,27.60
2023-03-03T00:13:33.253Z,26.90
2023-03-03T00:14:35.831Z,27.10
2023-03-03T00:15:39.407Z,24.10
2023-03-03T00:16:43.603Z,22.70
2023-03-03T00:17:47.140Z,28.40
2023-03-03T00:18:50.704Z,24.20
2023-03-03T00:19:54.474Z,25.50
2023-03-03T00:21:03.696Z,26.60
2023-03-03T00:22:09.640Z,23.30
2023-03-03T00:23:18.443Z,24.30
2023-03-03T00:24:36.396Z,20.10
2023-03-03T00:25:42.604Z,24.20
2023-03-03T00:26:51.320Z,21.60
2023-03-03T00:27:54.091Z,27.20
2023-03-03T00:28:56.870Z,37.18
2023-03-03T00:30:00.751Z,33.50
2023-03-03T00:31:07.488Z,35.10
2023-03-03T00:32:14.117Z,34.50
2023-03-03T00:33:23.306Z,37.10
2023-03-03T00:34:27.963Z,36.60
2023-03-03T00:35:35.874Z,37.20
2023-03-03T00:36:39.347Z,34.50
2023-03-03T00:37:41.872Z,31.20
2023-03-03T00:38:44.383Z,32.60
2023-03-03T00:39:46.855Z,32.20
2023-03-03T00:40:50.182Z,32.90
2023-03-03T00:41:53.756Z,30.40
2023-03-03T00:42:59.744Z,32.80
2023-03-03T00:44:05.800Z,33.90
2023-03-03T00:45:18.807Z,40.00
2023-03-03T00:46:23.085Z,38.80
2023-03-03T00:47:31.396Z,39.00
2023-03-03T00:48:40.426Z,37.00
2023-03-03T00:49:43.440Z,39.70
2023-03-03T00:50:46.865Z,39.40
2023-03-03T00:51:49.912Z,43.90
2023-03-03T00:53:05.279Z,40.70
2023-03-03T00:54:08.092Z,35.40
2023-03-03T00:55:10.777Z,38.70
2023-03-03T00:56:15.384Z,39.60
2023-03-03T00:57:18.106Z,43.40
2023-03-03T00:58:22.159Z,40.00
2023-03-03T00:59:25.421Z,35.00
2023-03-03T01:00:28.145Z,38.50
2023-03-03T01:01:31.147Z,40.10
2023-03-03T01:02:33.807Z,40.36
2023-03-03T01:03:36.496Z,33.36
2023-03-03T01:04:41.655Z,42.20
2023-03-03T01:05:44.638Z,41.90
2023-03-03T01:06:47.264Z,43.09
2023-03-03T01:07:49.626Z,43.70
2023-03-03T01:08:52.676Z,43.82
2023-03-03T01:09:55.151Z,41.30
2023-03-03T01:11:07.371Z,42.60
2023-03-03T01:12:10.893Z,37.70
2023-03-03T01:13:13.833Z,38.60
2023-03-03T01:14:16.945Z,36.36
2023-03-03T01:15:19.422Z,38.40
2023-03-03T01:16:23.548Z,36.60
2023-03-03T01:17:26.564Z,37.80
2023-03-03T01:18:31.629Z,37.20
2023-03-03T01:19:34.140Z,36.80
2023-03-03T01:20:36.889Z,35.30
2023-03-03T01:21:39.522Z,36.40
2023-03-03T01:22:42.235Z,33.80
2023-03-03T01:23:46.059Z,33.60
2023-03-03T01:24:49.741Z,34.10
2023-03-03T01:25:52.289Z,31.70
2023-03-03T01:26:54.865Z,31.70
2023-03-03T01:27:58.577Z,32.50
2023-03-03T01:29:00.849Z,28.90
2023-03-03T01:30:05.534Z,28.30
2023-03-03T01:31:08.165Z,27.30
2023-03-03T01:32:11.049Z,30.91
2023-03-03T01:33:13.682Z,30.82
2023-03-03T01:34:16.687Z,36.10
2023-03-03T01:35:20.698Z,44.00
2023-03-03T01:36:28.326Z,48.30
2023-03-03T01:37:30.833Z,44.40
2023-03-03T01:38:35.662Z,60.30
2023-03-03T01:39:38.992Z,61.00
2023-03-03T01:40:41.775Z,68.60
2023-03-03T01:41:44.153Z,65.70
2023-03-03T01:42:46.922Z,62.80
2023-03-03T01:43:50.505Z,79.80
2023-03-03T01:45:11.637Z,68.10
2023-03-03T01:46:39.583Z,65.00
2023-03-03T01:47:54.548Z,78.40
2023-03-03T01:49:03.434Z,64.40
2023-03-03T01:50:12.960Z,66.60
2023-03-03T01:51:27.839Z,64.00
2023-03-03T01:52:37.243Z,53.80
2023-03-03T01:54:58.045Z,49.30
2023-03-03T01:56:02.665Z,48.60
2023-03-03T01:57:08.754Z,46.10
2023-03-03T01:58:24.027Z,47.30
2023-03-03T01:59:36.102Z,38.60
2023-03-03T02:00:41.779Z,40.50
2023-03-03T02:01:46.673Z,44.90
2023-03-03T02:02:49.649Z,38.10
2023-03-03T02:03:52.842Z,36.60
2023-03-03T02:04:55.767Z,37.60
2023-03-03T02:06:02.994Z,41.90
2023-03-03T02:07:10.968Z,38.00
2023-03-03T02:08:17.081Z,37.80
2023-03-03T02:09:41.705Z,40.20
2023-03-03T02:10:46.272Z,38.00
2023-03-03T02:11:52.145Z,38.20
2023-03-03T02:12:57.463Z,39.00
2023-03-03T02:14:00.132Z,34.60
2023-03-03T02:15:04.345Z,31.80
2023-03-03T02:16:08.224Z,35.50
2023-03-03T02:17:13.373Z,35.30
2023-03-03T02:18:19.308Z,36.00
2023-03-03T02:19:28.174Z,37.30
2023-03-03T02:20:55.532Z,34.50
2023-03-03T02:22:01.532Z,39.80
2023-03-03T02:24:37.172Z,35.60
2023-03-03T02:25:47.349Z,37.00
2023-03-03T02:26:50.366Z,36.80
2023-03-03T02:27:52.968Z,45.20
2023-03-03T02:28:57.365Z,34.10
2023-03-03T02:30:08.778Z,36.20
2023-03-03T02:31:15.284Z,36.60
2023-03-03T02:32:18.437Z,37.50
2023-03-03T02:33:22.290Z,38.70
2023-03-03T02:34:24.624Z,40.91
2023-03-03T02:35:35.134Z,42.40
2023-03-03T02:36:39.730Z,44.60
2023-03-03T02:37:43.104Z,48.30
2023-03-03T02:38:58.274Z,47.70
2023-03-03T02:40:03.797Z,47.30
2023-03-03T02:41:24.935Z,46.20
2023-03-03T02:42:31.143Z,41.50
2023-03-03T02:43:43.443Z,42.60
2023-03-03T02:44:46.363Z,44.20
2023-03-03T02:45:49.094Z,48.09
2023-03-03T02:46:53.586Z,44.60
2023-03-03T02:47:56.366Z,43.70
2023-03-03T02:48:58.859Z,43.00
2023-03-03T02:50:02.419Z,37.50
2023-03-03T02:51:05.489Z,40.00
2023-03-03T02:52:10.232Z,45.30
2023-03-03T02:53:14.142Z,39.00
2023-03-03T02:54:19.423Z,45.36
2023-03-03T02:55:22.536Z,43.90
2023-03-03T02:56:25.102Z,39.27
2023-03-03T02:57:27.677Z,41.60
2023-03-03T02:58:30.557Z,43.70
2023-03-03T02:59:33.303Z,39.64
2023-03-03T03:00:37.823Z,38.70
2023-03-03T03:01:40.490Z,37.50
2023-03-03T03:02:44.930Z,35.80
2023-03-03T03:03:48.155Z,33.40
2023-03-03T03:04:53.144Z,35.80
2023-03-03T03:05:57.807Z,44.50
2023-03-03T03:07:00.916Z,36.30
2023-03-03T03:08:04.810Z,36.90
2023-03-03T03:09:09.050Z,37.82
2023-03-03T03:10:12.152Z,42.00
2023-03-03T03:11:15.675Z,39.73
2023-03-03T03:12:20.389Z,37.40
2023-03-03T03:13:25.312Z,34.80
2023-03-03T03:14:28.213Z,33.70
2023-03-03T03:15:30.789Z,33.80
2023-03-03T03:16:34.558Z,27.00
2023-03-03T03:17:38.791Z,28.80
2023-03-03T03:18:41.524Z,20.80
2023-03-03T03:19:44.095Z,31.30
2023-03-03T03:20:48.525Z,35.18
2023-03-03T03:21:52.349Z,34.50
2023-03-03T03:22:56.147Z,35.30
2023-03-03T03:23:59.230Z,36.00
2023-03-03T03:25:02.058Z,40.30
2023-03-03T03:26:06.395Z,50.50
2023-03-03T03:27:09.034Z,52.80
2023-03-03T03:28:12.295Z,47.30
2023-03-03T03:29:14.869Z,48.80
2023-03-03T03:30:19.908Z,49.50
2023-03-03T03:31:22.981Z,53.70
2023-03-03T03:32:25.559Z,56.64
2023-03-03T03:33:28.305Z,61.70
2023-03-03T03:34:31.949Z,41.40
2023-03-03T03:35:35.587Z,52.10
2023-03-03T03:36:39.271Z,48.60
2023-03-03T03:37:43.347Z,47.00
2023-03-03T03:38:46.074Z,45.30
2023-03-03T03:39:48.555Z,45.30
2023-03-03T03:40:53.748Z,41.00
2023-03-03T03:41:56.289Z,42.50
2023-03-03T03:42:58.558Z,43.80
2023-03-03T03:44:01.402Z,50.20
2023-03-03T03:45:06.010Z,50.10
2023-03-03T03:46:09.215Z,47.20
2023-03-03T03:47:12.876Z,52.80
2023-03-03T03:48:16.893Z,47.80
2023-03-03T03:49:20.907Z,33.10
2023-03-03T03:50:24.595Z,35.80
2023-03-03T03:51:27.355Z,37.20
2023-03-03T03:52:30.032Z,38.30
2023-03-03T03:53:32.537Z,37.60
2023-03-03T03:54:35.632Z,35.20
2023-03-03T03:55:38.475Z,32.55
2023-03-03T03:56:41.477Z,32.00
2023-03-03T03:57:44.143Z,31.30
2023-03-03T03:58:46.591Z,30.20
2023-03-03T03:59:49.969Z,27.60
2023-03-03T04:00:53.015Z,35.80
2023-03-03T04:01:55.466Z,36.60
2023-03-03T04:02:58.239Z,36.10
2023-03-03T04:04:02.444Z,36.40
2023-03-03T04:05:05.777Z,31.80
2023-03-03T04:06:08.500Z,31.50
2023-03-03T04:07:14.789Z,38.70
2023-03-03T04:08:18.113Z,35.80
2023-03-03T04:09:20.670Z,31.60
2023-03-03T04:10:24.308Z,36.90
2023-03-03T04:11:26.743Z,28.40
2023-03-03T04:12:29.454Z,36.70
2023-03-03T04:13:34.363Z,34.40
2023-03-03T04:14:37.252Z,35.60
2023-03-03T04:15:41.280Z,36.09
2023-03-03T04:16:43.773Z,35.30
2023-03-03T04:17:46.837Z,33.50
2023-03-03T04:18:49.654Z,36.20
2023-03-03T04:19:55.005Z,38.60
2023-03-03T04:20:57.962Z,39.20
2023-03-03T04:22:00.655Z,35.70
2023-03-03T04:23:03.096Z,39.30
2023-03-03T04:24:06.739Z,39.40
2023-03-03T04:25:14.150Z,38.80
2023-03-03T04:26:18.563Z,40.00
2023-03-03T04:27:22.566Z,41.50
2023-03-03T04:28:26.754Z,37.30
2023-03-03T04:29:29.665Z,39.60
2023-03-03T04:30:33.761Z,43.50
2023-03-03T04:31:36.604Z,42.60
2023-03-03T04:32:39.683Z,41.70
2023-03-03T04:33:43.824Z,43.40
2023-03-03T04:34:48.997Z,42.20
2023-03-03T04:35:51.051Z,46.10
2023-03-03T04:36:56.234Z,48.70
2023-03-03T04:37:58.621Z,43.90
2023-03-03T04:39:01.678Z,50.10
2023-03-03T04:40:07.665Z,49.00
2023-03-03T04:41:10.879Z,51.80
2023-03-03T04:42:14.009Z,43.30
2023-03-03T04:43:16.766Z,30.50
2023-03-03T04:44:19.227Z,39.10
2023-03-03T04:45:21.772Z,48.70
2023-03-03T04:46:24.644Z,49.27
2023-03-03T04:47:28.353Z,46.50
2023-03-03T04:48:30.994Z,42.80
2023-03-03T04:49:33.496Z,45.20
2023-03-03T04:50:36.408Z,47.36
2023-03-03T04:51:39.081Z,42.70
2023-03-03T04:52:42.062Z,45.64
2023-03-03T04:53:44.582Z,40.40
2023-03-03T04:54:46.941Z,43.00
2023-03-03T04:55:53.145Z,46.50
2023-03-03T04:56:56.470Z,46.10
2023-03-03T04:57:59.156Z,46.50
2023-03-03T04:59:01.605Z,48.20
2023-03-03T05:00:06.533Z,46.40
2023-03-03T05:01:14.307Z,45.10
2023-03-03T05:02:17.311Z,38.10
2023-03-03T05:03:20.014Z,39.80
2023-03-03T05:04:22.549Z,34.00
2023-03-03T05:05:25.019Z,28.70
2023-03-03T05:06:27.409Z,34.60
2023-03-03T05:07:30.785Z,27.00
2023-03-03T05:08:33.765Z,29.50
2023-03-03T05:09:37.190Z,28.40
2023-03-03T05:10:41.251Z,31.40
2023-03-03T05:11:43.612Z,29.60
2023-03-03T05:12:45.972Z,26.10
2023-03-03T05:13:50.717Z,27.20
2023-03-03T05:14:53.098Z,26.60
2023-03-03T05:15:56.376Z,22.00
2023-03-03T05:16:58.840Z,20.60
2023-03-03T05:18:04.085Z,23.30
2023-03-03T05:19:06.528Z,23.10
2023-03-03T05:20:11.457Z,21.00
2023-03-03T05:21:14.568Z,22.10
2023-03-03T05:22:17.687Z,18.27
2023-03-03T05:23:22.773Z,24.10
2023-03-03T05:24:25.120Z,22.50
2023-03-03T05:25:28.348Z,19.60
2023-03-03T05:26:30.773Z,21.10
2023-03-03T05:27:33.268Z,19.60
2023-03-03T05:28:35.511Z,16.20
2023-03-03T05:29:38.640Z,20.40
2023-03-03T05:30:41.241Z,16.80
2023-03-03T05:31:45.561Z,19.60
2023-03-03T05:32:48.106Z,17.60
2023-03-03T05:33:50.726Z,18.20
2023-03-03T05:34:53.477Z,14.70
2023-03-03T05:35:57.167Z,18.60
2023-03-03T05:36:59.682Z,20.80
2023-03-03T05:38:05.305Z,19.70
2023-03-03T05:39:08.216Z,18.00
2023-03-03T05:40:13.203Z,17.00
2023-03-03T05:41:15.856Z,17.40
2023-03-03T05:42:18.239Z,13.10
2023-03-03T05:43:20.527Z,16.00
2023-03-03T05:44:22.647Z,16.80
2023-03-03T05:45:24.896Z,19.40
2023-03-03T05:46:27.286Z,16.70
2023-03-03T05:47:29.576Z,17.60
2023-03-03T05:48:31.956Z,19.20
2023-03-03T05:49:34.777Z,18.70
2023-03-03T05:50:39.337Z,19.27
2023-03-03T05:51:42.347Z,25.10
2023-03-03T05:52:52.197Z,22.60
2023-03-03T05:53:56.471Z,22.80
2023-03-03T05:54:58.992Z,23.30
2023-03-03T05:56:01.349Z,24.10
2023-03-03T05:57:03.806Z,23.90
2023-03-03T05:58:06.380Z,20.70
2023-03-03T05:59:09.587Z,22.60
2023-03-03T06:00:13.656Z,18.00
2023-03-03T06:01:16.014Z,23.60
2023-03-03T06:02:18.884Z,24.10
2023-03-03T06:03:22.188Z,26.45
2023-03-03T06:04:24.545Z,23.10
2023-03-03T06:05:27.629Z,20.70
2023-03-03T06:06:30.462Z,24.40
2023-03-03T06:07:32.699Z,24.20
2023-03-03T06:08:35.038Z,27.00
2023-03-03T06:09:37.903Z,21.90
2023-03-03T06:10:40.653Z,31.10
2023-03-03T06:11:44.348Z,27.60
2023-03-03T06:12:46.706Z,28.80
2023-03-03T06:13:49.061Z,24.10
2023-03-03T06:14:52.318Z,25.90
2023-03-03T06:15:54.536Z,23.70
2023-03-03T06:16:57.606Z,24.00
2023-03-03T06:18:00.099Z,26.45
2023-03-03T06:19:02.460Z,23.90
2023-03-03T06:20:06.268Z,25.60
2023-03-03T06:21:08.799Z,27.70
2023-03-03T06:22:11.142Z,26.90
2023-03-03T06:23:13.499Z,27.90
2023-03-03T06:24:15.982Z,25.10
2023-03-03T06:25:19.033Z,27.10
2023-03-03T06:26:21.652Z,26.60
2023-03-03T06:27:24.002Z,29.50
2023-03-03T06:28:26.643Z,29.00
2023-03-03T06:29:29.052Z,29.80
2023-03-03T06:30:31.597Z,27.00
2023-03-03T06:31:35.133Z,29.50
2023-03-03T06:32:38.058Z,31.27
2023-03-03T06:33:42.675Z,26.45
2023-03-03T06:34:44.889Z,28.70
2023-03-03T06:35:51.920Z,29.50
2023-03-03T06:36:54.636Z,29.20
2023-03-03T06:37:58.064Z,30.00
2023-03-03T06:39:01.548Z,28.60
2023-03-03T06:40:05.863Z,29.40
2023-03-03T06:41:08.410Z,29.20
2023-03-03T06:42:10.758Z,32.40
2023-03-03T06:43:13.421Z,32.30
2023-03-03T06:44:15.814Z,31.80
2023-03-03T06:45:18.418Z,32.30
2023-03-03T06:46:21.030Z,33.73
2023-03-03T06:47:23.558Z,37.30
2023-03-03T06:48:26.194Z,27.70
2023-03-03T06:49:28.661Z,33.30
2023-03-03T06:50:31.426Z,33.40
2023-03-03T06:51:39.836Z,17.00
2023-03-03T06:52:42.458Z,25.70
2023-03-03T06:53:45.879Z,26.10
2023-03-03T06:54:49.233Z,27.20
2023-03-03T06:55:53.728Z,25.80
2023-03-03T06:57:02.877Z,26.60
2023-03-03T06:58:18.678Z,24.40
2023-03-03T06:59:22.756Z,29.20
2023-03-03T07:00:30.354Z,23.10
2023-03-03T07:01:35.349Z,23.60
2023-03-03T07:02:40.272Z,19.30
2023-03-03T07:03:44.534Z,24.00
2023-03-03T07:04:48.602Z,20.80
2023-03-03T07:05:52.790Z,19.50
2023-03-03T07:06:58.682Z,23.70
2023-03-03T07:08:01.178Z,21.00
2023-03-03T07:09:08.592Z,25.10
2023-03-03T07:10:31.450Z,20.80
2023-03-03T07:11:35.732Z,23.90
2023-03-03T07:12:38.306Z,19.00
2023-03-03T07:13:44.277Z,21.80
2023-03-03T07:14:51.512Z,17.70
2023-03-03T07:15:56.722Z,21.80
2023-03-03T07:17:05.910Z,21.70
2023-03-03T07:18:28.754Z,24.40
2023-03-03T07:19:35.999Z,25.10
2023-03-03T07:20:40.949Z,23.80
2023-03-03T07:21:43.347Z,22.80
2023-03-03T07:22:46.771Z,23.30
2023-03-03T07:23:51.917Z,22.00
2023-03-03T07:24:58.187Z,8.90
2023-03-03T07:26:00.626Z,22.50
2023-03-03T07:27:21.037Z,27.30
2023-03-03T07:28:26.134Z,26.70
2023-03-03T07:29:30.148Z,27.50
2023-03-03T07:30:32.972Z,21.00
2023-03-03T07:31:39.128Z,23.80
2023-03-03T07:32:43.459Z,21.50
2023-03-03T07:33:47.399Z,21.80
2023-03-03T07:34:52.468Z,24.90
2023-03-03T07:35:59.354Z,25.10
2023-03-03T07:37:06.188Z,26.40
2023-03-03T07:38:19.909Z,21.10
2023-03-03T07:39:28.931Z,22.80
2023-03-03T07:40:35.649Z,26.50
2023-03-03T07:41:38.607Z,26.10
2023-03-03T07:42:42.259Z,22.80
2023-03-03T07:43:54.042Z,12.70
2023-03-03T07:44:59.190Z,30.10
2023-03-03T07:46:05.413Z,29.90
2023-03-03T07:47:32.042Z,23.90
2023-03-03T07:48:42.120Z,14.20
2023-03-03T07:49:45.760Z,20.40
2023-03-03T07:50:49.543Z,17.10
2023-03-03T07:51:57.450Z,16.30
2023-03-03T07:53:01.966Z,19.60
2023-03-03T07:54:31.053Z,16.70
2023-03-03T07:55:39.119Z,19.90
2023-03-03T07:56:41.906Z,22.10
2023-03-03T07:57:45.316Z,24.80
2023-03-03T07:58:48.495Z,26.70
2023-03-03T08:00:03.501Z,19.60
2023-03-03T08:01:31.174Z,23.20
2023-03-03T08:02:42.920Z,21.60
2023-03-03T08:03:48.939Z,20.40
2023-03-03T08:04:52.066Z,15.00
2023-03-03T08:05:55.071Z,14.30
2023-03-03T08:07:00.504Z,16.50
2023-03-03T08:08:31.052Z,17.30
2023-03-03T08:09:46.216Z,14.50
2023-03-03T08:10:56.218Z,10.80
2023-03-03T08:12:09.888Z,16.40
2023-03-03T08:13:21.760Z,14.20
2023-03-03T08:14:34.767Z,13.90
2023-03-03T08:15:38.169Z,17.10
2023-03-03T08:16:41.710Z,23.20
2023-03-03T08:17:45.357Z,20.91
2023-03-03T08:18:50.353Z,23.30
2023-03-03T08:19:55.371Z,19.50
2023-03-03T08:21:00.744Z,21.50
2023-03-03T08:22:21.741Z,18.60
2023-03-03T08:23:25.101Z,15.40
2023-03-03T08:24:28.772Z,18.30
2023-03-03T08:25:31.080Z,14.90
2023-03-03T08:26:33.838Z,15.70
2023-03-03T08:27:36.459Z,13.30
2023-03-03T08:28:38.936Z,21.60
2023-03-03T08:29:42.458Z,20.50
2023-03-03T08:30:47.146Z,19.90
2023-03-03T08:31:49.566Z,18.50
2023-03-03T08:32:52.631Z,11.40
2023-03-03T08:33:55.623Z,22.70
2023-03-03T08:34:57.891Z,13.27
2023-03-03T08:36:02.364Z,16.70
2023-03-03T08:37:05.305Z,15.20
2023-03-03T08:38:08.364Z,16.80
2023-03-03T08:39:10.835Z,17.30
2023-03-03T08:40:13.934Z,21.00
2023-03-03T08:41:16.957Z,16.55
2023-03-03T08:42:19.119Z,4.80
2023-03-03T08:43:22.248Z,11.60
2023-03-03T08:44:25.002Z,15.10
2023-03-03T08:45:28.901Z,18.60
2023-03-03T08:46:31.332Z,17.00
2023-03-03T08:47:33.814Z,17.60
2023-03-03T08:48:36.042Z,16.50
2023-03-03T08:49:39.392Z,18.40
2023-03-03T08:50:42.876Z,17.00
2023-03-03T08:51:45.393Z,18.70
2023-03-03T08:52:48.032Z,26.40
2023-03-03T08:53:50.952Z,13.36
2023-03-03T08:54:54.774Z,12.55
2023-03-03T08:55:57.150Z,15.40
2023-03-03T08:56:59.513Z,14.30
2023-03-03T08:58:01.861Z,7.50
2023-03-03T08:59:04.596Z,9.40
2023-03-03T09:00:10.806Z,14.20
2023-03-03T09:01:16.276Z,11.20
2023-03-03T09:02:19.372Z,12.20
2023-03-03T09:03:22.478Z,10.10
2023-03-03T09:04:25.899Z,6.90
2023-03-03T09:05:28.473Z,7.40
2023-03-03T09:06:30.705Z,11.20
2023-03-03T09:07:33.240Z,9.82
2023-03-03T09:08:36.112Z,10.40
2023-03-03T09:09:39.647Z,13.00
2023-03-03T09:10:42.408Z,8.70
2023-03-03T09:11:47.558Z,6.60
2023-03-03T09:12:50.225Z,5.20
2023-03-03T09:14:09.096Z,11.00
2023-03-03T09:15:20.910Z,8.70
2023-03-03T09:16:24.485Z,10.00
2023-03-03T09:17:31.591Z,2.80
2023-03-03T09:18:38.883Z,11.60
2023-03-03T09:19:44.348Z,11.80
2023-03-03T09:20:49.451Z,9.10
2023-03-03T09:21:56.692Z,9.90
2023-03-03T09:23:01.937Z,8.70
2023-03-03T09:24:07.362Z,10.70
2023-03-03T09:25:16.118Z,11.50
2023-03-03T09:26:31.618Z,10.70
2023-03-03T09:27:37.814Z,7.70
2023-03-03T09:28:40.160Z,3.60
2023-03-03T09:29:42.294Z,5.10
2023-03-03T09:30:49.057Z,1.80
2023-03-03T09:31:58.751Z,2.20
2023-03-03T09:33:04.398Z,5.10
2023-03-03T09:34:16.845Z,3.20
2023-03-03T09:35:40.407Z,5.10
2023-03-03T09:36:44.038Z,8.50
2023-03-03T09:37:49.945Z,7.80
2023-03-03T09:38:53.732Z,8.10
2023-03-03T09:39:57.287Z,10.70
2023-03-03T09:41:16.820Z,10.60
2023-03-03T09:42:43.569Z,6.40
2023-03-03T09:43:49.515Z,7.40
2023-03-03T09:45:15.261Z,12.80
2023-03-03T09:46:24.217Z,14.40
2023-03-03T09:47:45.809Z,12.80
2023-03-03T09:49:07.235Z,14.00
2023-03-03T09:50:16.827Z,16.60
2023-03-03T09:51:43.807Z,15.80
2023-03-03T09:53:02.084Z,13.10
2023-03-03T09:54:20.163Z,13.30
2023-03-03T09:55:38.480Z,10.10
2023-03-03T09:56:50.661Z,22.70
2023-03-03T09:58:11.629Z,24.20
2023-03-03T10:01:04.567Z,29.00
2023-03-03T10:02:17.146Z,15.70
2023-03-03T10:04:55.167Z,24.50
2023-03-03T10:06:17.245Z,19.50
2023-03-03T10:07:38.159Z,19.00
2023-03-03T10:09:09.544Z,11.10
2023-03-03T10:10:29.188Z,7.30
2023-03-03T10:11:43.865Z,11.40
2023-03-03T10:12:58.658Z,10.80
2023-03-03T10:14:21.178Z,9.50
2023-03-03T10:15:40.540Z,15.00
2023-03-03T10:17:08.106Z,13.30
2023-03-03T10:18:33.412Z,6.40
2023-03-03T10:19:39.329Z,18.10
2023-03-03T10:20:55.160Z,21.60
2023-03-03T10:22:29.922Z,19.10
2023-03-03T10:23:41.944Z,16.70
2023-03-03T10:25:07.624Z,15.90
2023-03-03T10:26:14.672Z,13.10
2023-03-03T10:27:32.620Z,12.70
2023-03-03T10:28:51.104Z,14.50
2023-03-03T10:30:38.310Z,13.10
2023-03-03T10:31:36.328Z,12.10
2023-03-03T10:32:42.599Z,12.70
2023-03-03T10:34:08.564Z,10.10
2023-03-03T10:35:29.703Z,15.70
2023-03-03T10:36:38.599Z,10.30
2023-03-03T10:37:53.692Z,13.90
2023-03-03T10:41:10.036Z,8.00
2023-03-03T10:42:32.670Z,8.50
2023-03-03T10:43:44.166Z,20.50
2023-03-03T10:45:11.743Z,14.00
2023-03-03T10:46:22.373Z,18.10
2023-03-03T10:47:53.662Z,17.70
2023-03-03T10:49:23.793Z,13.20
2023-03-03T10:50:59.044Z,16.80
2023-03-03T10:52:21.633Z,9.80
2023-03-03T10:53:42.905Z,14.90
2023-03-03T10:55:19.191Z,15.30
2023-03-03T10:56:52.914Z,16.80
2023-03-03T10:58:03.155Z,8.50
2023-03-03T10:59:43.608Z,11.00
2023-03-03T11:01:08.119Z,16.20
2023-03-03T11:02:16.678Z,15.50
2023-03-03T11:03:38.056Z,14.10
2023-03-03T11:04:46.720Z,16.00
2023-03-03T11:06:06.736Z,13.80
2023-03-03T11:07:15.435Z,19.30
2023-03-03T11:08:24.399Z,9.40
2023-03-03T11:09:37.245Z,11.20
2023-03-03T11:11:06.177Z,15.10
2023-03-03T11:12:33.940Z,7.80
2023-03-03T11:14:15.156Z,24.80
2023-03-03T11:15:33.399Z,18.80
2023-03-03T11:16:46.894Z,18.30
2023-03-03T11:18:25.587Z,16.30
2023-03-03T11:19:29.622Z,16.00
2023-03-03T11:20:35.689Z,14.00
2023-03-03T11:21:45.138Z,14.40
2023-03-03T11:23:00.355Z,11.80
2023-03-03T11:24:10.229Z,15.20
2023-03-03T11:25:22.316Z,23.90
2023-03-03T11:26:40.155Z,29.40
2023-03-03T11:28:02.194Z,26.90
2023-03-03T11:29:11.248Z,15.60
2023-03-03T11:30:26.198Z,11.80
2023-03-03T11:31:54.009Z,9.50
2023-03-03T11:33:22.291Z,8.40
2023-03-03T11:34:37.431Z,8.70
2023-03-03T11:35:52.012Z,13.40
2023-03-03T11:37:09.626Z,12.50
2023-03-03T11:38:27.810Z,16.20
2023-03-03T11:39:30.895Z,10.90
2023-03-03T11:40:43.297Z,9.60
2023-03-03T11:42:00.387Z,13.50
2023-03-03T11:43:08.887Z,11.90
2023-03-03T11:44:42.229Z,10.40
2023-03-03T11:45:53.988Z,6.50
2023-03-03T11:47:00.685Z,13.70
2023-03-03T11:48:09.591Z,12.00
2023-03-03T11:49:18.914Z,11.20
2023-03-03T11:50:24.903Z,6.20
2023-03-03T11:51:49.566Z,6.00
2023-03-03T11:53:10.842Z,6.90
2023-03-03T11:54:29.086Z,7.20
2023-03-03T11:55:37.546Z,2.30
2023-03-03T11:56:42.576Z,8.90
2023-03-03T11:57:48.925Z,10.70
2023-03-03T11:59:07.520Z,8.80
2023-03-03T12:00:32.542Z,16.60
2023-03-03T12:01:56.092Z,8.20
2023-03-03T12:03:17.467Z,5.10
2023-03-03T12:04:35.402Z,10.40
2023-03-03T12:07:36.151Z,12.10
2023-03-03T12:08:50.898Z,6.10
2023-03-03T12:10:03.237Z,5.80
2023-03-03T12:11:28.301Z,3.10
2023-03-03T12:12:34.185Z,5.50
2023-03-03T12:13:41.072Z,6.60
2023-03-03T12:15:10.259Z,4.90
2023-03-03T12:16:25.462Z,2.60
2023-03-03T12:17:35.149Z,6.40
2023-03-03T12:18:58.725Z,6.30
2023-03-03T12:20:07.340Z,6.20
2023-03-03T12:21:17.272Z,3.80
2023-03-03T12:22:23.263Z,3.40
2023-03-03T12:23:45.234Z,8.80
2023-03-03T12:25:05.029Z,7.30
2023-03-03T12:27:30.732Z,9.00
2023-03-03T12:29:56.263Z,8.20
2023-03-03T12:31:11.348Z,11.70
2023-03-03T12:32:19.539Z,7.80
2023-03-03T12:33:40.510Z,9.60
2023-03-03T12:34:49.425Z,9.40
2023-03-03T12:36:16.753Z,12.30
2023-03-03T12:37:25.571Z,10.60
2023-03-03T12:38:49.213Z,9.30
2023-03-03T12:41:19.853Z,2.80
2023-03-03T12:42:31.945Z,7.00
2023-03-03T12:43:57.581Z,9.50
2023-03-03T12:45:03.525Z,6.90
2023-03-03T12:46:29.161Z,10.50
2023-03-03T12:47:45.203Z,3.60
2023-03-03T12:48:47.909Z,5.70
2023-03-03T12:50:26.669Z,9.10
2023-03-03T12:51:58.156Z,5.30
2023-03-03T12:53:13.991Z,11.40
2023-03-03T12:54:26.147Z,2.10
2023-03-03T12:55:38.916Z,8.50
2023-03-03T12:56:54.220Z,5.70
2023-03-03T12:58:00.235Z,7.80
2023-03-03T12:59:13.413Z,9.60
2023-03-03T13:00:23.034Z,7.50
2023-03-03T13:01:29.751Z,9.50
2023-03-03T13:03:07.607Z,4.20
2023-03-03T13:04:29.053Z,10.20
2023-03-03T13:05:50.361Z,4.20
2023-03-03T13:06:59.328Z,12.70
2023-03-03T13:08:30.472Z,12.10
2023-03-03T13:09:57.893Z,8.50
2023-03-03T13:11:23.656Z,12.20
2023-03-03T13:12:41.344Z,10.30
2023-03-03T13:13:59.270Z,11.90
2023-03-03T13:15:18.355Z,10.20
2023-03-03T13:16:41.103Z,8.70
2023-03-03T13:17:49.302Z,9.20
2023-03-03T13:19:04.321Z,7.60
2023-03-03T13:20:31.900Z,9.80
2023-03-03T13:22:01.546Z,10.70
2023-03-03T13:23:38.142Z,9.60
2023-03-03T13:25:06.039Z,9.50
2023-03-03T13:26:18.409Z,7.50
2023-03-03T13:27:24.423Z,12.30
2023-03-03T13:28:42.439Z,7.90
2023-03-03T13:30:00.605Z,9.00
2023-03-03T13:31:24.918Z,8.20
2023-03-03T13:32:51.733Z,6.80
2023-03-03T13:33:56.578Z,6.60
2023-03-03T13:35:02.551Z,11.70
2023-03-03T13:37:21.954Z,8.00
2023-03-03T13:38:44.098Z,5.30
2023-03-03T13:40:00.130Z,8.30
2023-03-03T13:41:31.623Z,12.80
2023-03-03T13:43:00.397Z,9.40
2023-03-03T13:44:25.648Z,10.30
2023-03-03T13:45:52.810Z,7.90
2023-03-03T13:47:18.857Z,6.10
2023-03-03T13:48:31.332Z,10.50
2023-03-03T13:49:43.066Z,10.80
2023-03-03T13:50:57.575Z,7.80
2023-03-03T13:52:12.206Z,5.10
2023-03-03T13:53:41.157Z,7.70
2023-03-03T13:55:09.742Z,7.80
2023-03-03T13:56:28.987Z,8.90
2023-03-03T13:57:52.747Z,8.30
2023-03-03T13:59:17.714Z,6.90
2023-03-03T14:00:33.049Z,7.40
2023-03-03T14:01:54.300Z,7.30
2023-03-03T14:03:06.270Z,4.00
2023-03-03T14:04:33.661Z,7.40
2023-03-03T14:05:42.341Z,7.60
2023-03-03T14:06:49.385Z,6.50
2023-03-03T14:08:01.836Z,4.80
2023-03-03T14:09:29.201Z,9.50
2023-03-03T14:10:44.313Z,3.60
2023-03-03T14:11:56.503Z,6.40
2023-03-03T14:13:17.120Z,3.70
2023-03-03T14:14:41.861Z,6.70
2023-03-03T14:16:04.667Z,6.30
2023-03-03T14:17:25.243Z,9.40
2023-03-03T14:18:37.707Z,1.80
2023-03-03T14:19:48.841Z,8.90
2023-03-03T14:20:54.200Z,6.40
2023-03-03T14:22:25.218Z,6.50
2023-03-03T14:23:55.790Z,6.00
2023-03-03T14:25:12.093Z,7.30
2023-03-03T14:26:14.973Z,6.80
2023-03-03T14:27:26.501Z,8.90
2023-03-03T14:28:39.431Z,7.20
2023-03-03T14:29:41.907Z,3.30
2023-03-03T14:30:44.533Z,10.00
2023-03-03T14:31:47.502Z,8.80
2023-03-03T14:33:13.730Z,7.00
2023-03-03T14:34:40.109Z,7.70
2023-03-03T14:35:58.008Z,9.00
2023-03-03T14:37:10.760Z,8.70
2023-03-03T14:38:24.186Z,8.40
2023-03-03T14:39:37.063Z,10.10
2023-03-03T14:40:44.650Z,12.80
2023-03-03T14:41:47.572Z,13.90
2023-03-03T14:42:57.108Z,7.18
2023-03-03T14:44:23.058Z,13.70
2023-03-03T14:45:39.264Z,11.80
2023-03-03T14:46:44.390Z,11.70
2023-03-03T14:47:47.835Z,10.30
2023-03-03T14:48:53.684Z,10.10
2023-03-03T14:50:00.175Z,13.90
2023-03-03T14:51:29.573Z,10.30
2023-03-03T14:52:34.467Z,12.70
2023-03-03T14:53:40.156Z,12.50
2023-03-03T14:54:51.979Z,18.40
2023-03-03T14:55:55.730Z,17.30
2023-03-03T14:57:13.907Z,19.60
2023-03-03T14:58:41.153Z,10.70
2023-03-03T15:00:02.906Z,16.80
2023-03-03T15:01:25.319Z,20.10
2023-03-03T15:02:31.963Z,19.80
2023-03-03T15:03:38.958Z,18.60
2023-03-03T15:04:42.775Z,21.90
2023-03-03T15:05:50.293Z,22.30